createdAt,value
2019-05-06T00:05:04.000Z,8.46
2019-05-06T00:10:05.766Z,8.39
2019-05-06T00:15:06.526Z,8.44
2019-05-06T00:20:08.991Z,8.49
2019-05-06T00:25:29.748Z,8.48
2019-05-06T00:30:34.431Z,8.56
2019-05-06T00:35:34.668Z,8.52
2019-05-06T00:40:39.873Z,8.64
2019-05-06T00:45:44.196Z,8.57
2019-05-06T00:50:44.788Z,8.54
2019-05-06T00:55:47.243Z,8.52
2019-05-06T01:00:49.699Z,8.37
2019-05-06T01:05:54.175Z,8.33
2019-05-06T01:10:54.718Z,8.26
2019-05-06T01:15:57.072Z,8.10
2019-05-06T01:21:11.757Z,8.06
2019-05-06T01:26:15.010Z,7.86
2019-05-06T01:31:16.676Z,7.95
2019-05-06T01:36:19.126Z,8.01
2019-05-06T01:41:21.583Z,8.11
2019-05-06T01:46:24.340Z,8.17
2019-05-06T01:51:26.512Z,8.29
2019-05-06T01:56:28.962Z,8.31
2019-05-06T02:01:31.441Z,8.37
2019-05-06T02:06:34.438Z,8.36
2019-05-06T02:11:36.367Z,8.34
2019-05-06T02:16:38.816Z,8.28
2019-05-06T02:21:43.725Z,8.31
2019-05-06T02:26:43.852Z,8.24
2019-05-06T02:31:49.071Z,8.21
2019-05-06T02:36:51.532Z,8.18
2019-05-06T02:41:54.814Z,8.22
2019-05-06T02:47:02.709Z,8.23
2019-05-06T02:52:03.115Z,8.17
2019-05-06T02:57:04.550Z,8.17
2019-05-06T03:02:06.934Z,8.22
2019-05-06T03:07:09.392Z,8.20
2019-05-06T03:12:13.537Z,8.31
2019-05-06T03:17:14.397Z,8.50
2019-05-06T03:22:34.410Z,8.51
2019-05-06T03:27:34.482Z,8.32
2019-05-06T03:32:48.476Z,8.49
2019-05-06T03:37:39.401Z,8.41
2019-05-06T03:42:42.641Z,8.34
2019-05-06T03:47:47.222Z,8.44
2019-05-06T03:52:49.691Z,8.33
2019-05-06T03:57:53.909Z,8.29
2019-05-06T04:02:54.617Z,8.45
2019-05-06T04:07:57.095Z,8.38
2019-05-06T04:12:59.556Z,8.47
2019-05-06T04:18:03.908Z,8.54
2019-05-06T04:23:19.579Z,8.52
2019-05-06T04:28:27.957Z,8.50
2019-05-06T04:33:32.991Z,8.72
2019-05-06T04:38:33.675Z,8.82
2019-05-06T04:43:35.332Z,8.93
2019-05-06T04:48:37.800Z,9.24
2019-05-06T04:53:43.766Z,9.59
2019-05-06T04:58:43.010Z,9.92
2019-05-06T05:03:45.240Z,10.15
2019-05-06T05:08:47.987Z,10.48
2019-05-06T05:13:56.596Z,10.59
2019-05-06T05:18:59.063Z,10.55
2019-05-06T05:24:02.074Z,10.73
2019-05-06T05:29:04.007Z,10.81
2019-05-06T05:34:06.478Z,10.90
2019-05-06T05:39:08.952Z,11.02
2019-05-06T05:44:12.000Z,11.28
2019-05-06T05:49:13.891Z,11.29
2019-05-06T05:54:16.361Z,11.52
2019-05-06T05:59:18.897Z,11.42
2019-05-06T06:04:22.396Z,11.44
2019-05-06T06:09:23.857Z,12.13
2019-05-06T06:14:46.958Z,13.11
2019-05-06T06:19:49.828Z,13.48
2019-05-06T06:24:52.626Z,13.70
2019-05-06T06:29:54.765Z,13.41
2019-05-06T06:35:11.427Z,14.05
2019-05-06T06:40:08.816Z,14.12
2019-05-06T06:45:12.263Z,14.53
2019-05-06T06:50:13.795Z,14.92
2019-05-06T06:55:18.520Z,14.79
2019-05-06T07:00:27.968Z,15.31
2019-05-06T07:05:42.730Z,15.24
2019-05-06T07:10:45.217Z,15.70
2019-05-06T07:15:47.664Z,15.80
2019-05-06T07:20:52.919Z,15.92
2019-05-06T07:25:55.427Z,16.41
2019-05-06T07:31:13.065Z,16.69
2019-05-06T07:36:02.200Z,17.42
2019-05-06T07:41:04.738Z,16.98
2019-05-06T07:46:23.710Z,17.20
2019-05-06T07:51:26.064Z,17.16
2019-05-06T07:56:28.515Z,17.52
2019-05-06T08:01:33.186Z,18.07
2019-05-06T08:06:33.429Z,18.31
2019-05-06T08:11:36.014Z,18.85
2019-05-06T08:16:43.911Z,19.41
2019-05-06T08:21:43.994Z,21.48
2019-05-06T08:26:46.461Z,23.57
2019-05-06T08:31:48.908Z,36.00
2019-05-06T08:36:53.362Z,41.85
2019-05-06T08:41:53.864Z,42.40
2019-05-06T08:46:56.320Z,43.34
2019-05-06T08:51:58.809Z,28.99
2019-05-06T08:57:02.581Z,23.42
2019-05-06T09:02:03.724Z,33.95
2019-05-06T09:07:06.180Z,34.07
2019-05-06T09:12:08.655Z,38.98
2019-05-06T09:17:12.116Z,33.61
2019-05-06T09:22:13.569Z,24.10
2019-05-06T09:27:16.129Z,20.84
2019-05-06T09:32:18.603Z,18.98
2019-05-06T09:37:23.569Z,18.68
2019-05-06T09:42:23.524Z,19.08
2019-05-06T09:47:28.502Z,20.21
2019-05-06T09:52:33.227Z,20.97
2019-05-06T09:57:33.419Z,23.67
2019-05-06T10:02:35.938Z,36.95
2019-05-06T10:07:38.391Z,33.72
2019-05-06T10:12:42.052Z,23.49
2019-05-06T10:17:43.311Z,20.54
2019-05-06T10:22:45.799Z,19.43
2019-05-06T10:27:48.266Z,19.65
2019-05-06T10:32:52.714Z,20.26
2019-05-06T10:38:12.362Z,20.27
2019-05-06T10:43:22.000Z,19.60
2019-05-06T10:48:22.739Z,23.50
2019-05-06T10:53:25.072Z,22.98
2019-05-06T10:58:27.525Z,20.01
2019-05-06T11:03:30.132Z,19.63
2019-05-06T11:08:32.696Z,19.16
2019-05-06T11:13:35.045Z,19.27
2019-05-06T11:18:37.515Z,19.57
2019-05-06T11:23:41.800Z,20.18
2019-05-06T11:28:42.871Z,19.34
2019-05-06T11:33:48.071Z,18.90
2019-05-06T11:38:52.262Z,19.90
2019-05-06T11:43:52.979Z,20.89
2019-05-06T11:48:55.434Z,21.48
2019-05-06T11:53:57.912Z,26.35
2019-05-06T11:59:02.469Z,31.75
2019-05-06T12:04:03.222Z,38.08
2019-05-06T12:09:06.311Z,30.41
2019-05-06T12:14:07.782Z,25.40
2019-05-06T12:19:10.248Z,32.10
2019-05-06T12:24:12.768Z,35.33
2019-05-06T12:29:15.297Z,27.68
2019-05-06T12:34:17.772Z,27.03
2019-05-06T12:39:23.003Z,27.09
2019-05-06T12:44:23.134Z,26.73
2019-05-06T12:49:25.242Z,26.21
2019-05-06T12:54:27.729Z,23.81
2019-05-06T12:59:30.234Z,25.13
2019-05-06T13:04:49.738Z,23.75
2019-05-06T13:09:35.239Z,24.44
2019-05-06T13:14:37.657Z,21.77
2019-05-06T13:19:40.149Z,20.47
2019-05-06T13:24:42.653Z,22.03
2019-05-06T13:29:45.168Z,21.85
2019-05-06T13:34:59.200Z,21.13
2019-05-06T13:39:57.742Z,20.75
2019-05-06T13:45:02.269Z,20.46
2019-05-06T13:50:03.056Z,20.76
2019-05-06T13:55:05.372Z,21.72
2019-05-06T14:00:07.877Z,20.90
2019-05-06T14:05:12.111Z,20.78
2019-05-06T14:10:13.316Z,19.62
2019-05-06T14:15:15.463Z,18.31
2019-05-06T14:20:17.965Z,18.10
2019-05-06T14:25:29.662Z,18.87
2019-05-06T14:30:38.139Z,18.86
2019-05-06T14:35:42.905Z,18.94
2019-05-06T14:41:04.511Z,18.92
2019-05-06T14:46:04.295Z,18.99
2019-05-06T14:51:06.802Z,19.11
2019-05-06T14:56:15.386Z,19.09
2019-05-06T15:01:17.909Z,19.11
2019-05-06T15:06:22.315Z,19.08
2019-05-06T15:11:22.894Z,18.93
2019-05-06T15:16:25.356Z,18.84
2019-05-06T15:21:37.131Z,18.57
2019-05-06T15:26:30.286Z,18.21
2019-05-06T15:31:42.143Z,17.85
2019-05-06T15:36:44.201Z,17.52
2019-05-06T15:41:46.648Z,17.54
2019-05-06T15:46:49.112Z,17.38
2019-05-06T15:51:52.352Z,17.36
2019-05-06T15:56:54.080Z,17.29
2019-05-06T16:01:56.543Z,17.09
2019-05-06T16:06:59.040Z,17.05
2019-05-06T16:12:03.129Z,16.84
2019-05-06T16:17:03.999Z,16.76
2019-05-06T16:22:06.443Z,16.61
2019-05-06T16:27:08.904Z,16.60
2019-05-06T16:32:11.394Z,16.38
2019-05-06T16:37:13.871Z,16.34
2019-05-06T16:42:16.356Z,16.26
2019-05-06T16:47:18.832Z,16.18
2019-05-06T16:52:22.431Z,16.01
2019-05-06T16:57:23.736Z,15.82
2019-05-06T17:02:26.650Z,15.68
2019-05-06T17:07:28.719Z,15.54
2019-05-06T17:12:32.266Z,15.42
2019-05-06T17:17:43.398Z,15.22
2019-05-06T17:22:36.122Z,15.12
2019-05-06T17:27:38.604Z,15.22
2019-05-06T17:32:43.990Z,15.13
2019-05-06T17:37:49.546Z,14.92
2019-05-06T17:42:53.280Z,15.05
2019-05-06T17:47:54.475Z,14.98
2019-05-06T17:52:56.958Z,14.92
2019-05-06T17:57:59.440Z,14.54
2019-05-06T18:03:02.613Z,14.11
2019-05-06T18:08:04.381Z,13.92
2019-05-06T18:13:07.408Z,13.73
2019-05-06T18:18:09.310Z,13.67
2019-05-06T18:23:12.924Z,13.48
2019-05-06T18:28:14.255Z,13.26
2019-05-06T18:33:16.705Z,13.02
2019-05-06T18:38:19.196Z,12.96
2019-05-06T18:43:22.940Z,12.90
2019-05-06T18:48:24.182Z,12.96
2019-05-06T18:53:26.636Z,12.79
2019-05-06T18:58:29.125Z,12.73
2019-05-06T19:03:32.109Z,12.50
2019-05-06T19:08:36.937Z,12.34
2019-05-06T19:13:39.393Z,12.15
2019-05-06T19:18:42.634Z,11.86
2019-05-06T19:23:44.363Z,11.55
2019-05-06T19:28:46.809Z,11.45
2019-05-06T19:33:49.279Z,11.29
2019-05-06T19:38:51.754Z,11.28
2019-05-06T19:43:54.208Z,11.14
2019-05-06T19:48:56.665Z,10.92
2019-05-06T19:53:59.177Z,10.92
2019-05-06T19:59:02.173Z,10.81
2019-05-06T20:04:04.106Z,10.68
2019-05-06T20:09:24.946Z,10.52
2019-05-06T20:14:27.412Z,10.37
2019-05-06T20:19:31.300Z,10.17
2019-05-06T20:24:33.296Z,10.09
2019-05-06T20:29:36.898Z,10.12
2019-05-06T20:34:37.287Z,10.09
2019-05-06T20:39:39.750Z,10.11
2019-05-06T20:44:43.303Z,10.00
2019-05-06T20:49:44.692Z,9.88
2019-05-06T20:54:47.163Z,9.77
2019-05-06T20:59:49.797Z,9.63
2019-05-06T21:04:52.250Z,9.34
2019-05-06T21:09:54.734Z,8.97
2019-05-06T21:14:57.206Z,9.00
2019-05-06T21:19:59.673Z,8.75
2019-05-06T21:25:02.480Z,8.61
2019-05-06T21:30:07.789Z,8.74
2019-05-06T21:35:12.448Z,8.52
2019-05-06T21:40:12.723Z,8.25
2019-05-06T21:45:15.248Z,8.16
2019-05-06T21:50:17.637Z,8.12
2019-05-06T21:55:20.097Z,8.08
2019-05-06T22:00:23.374Z,8.13
2019-05-06T22:05:25.035Z,8.14
2019-05-06T22:10:27.494Z,8.38
2019-05-06T22:15:32.253Z,8.17
2019-05-06T22:20:32.786Z,8.28
2019-05-06T22:25:34.852Z,8.40
2019-05-06T22:30:37.303Z,8.39
2019-05-06T22:35:39.793Z,8.57
2019-05-06T22:40:42.532Z,8.65
2019-05-06T22:45:44.742Z,8.76
2019-05-06T22:50:47.202Z,8.74
2019-05-06T22:55:49.677Z,8.51
2019-05-06T23:00:55.041Z,8.56
2019-05-06T23:05:57.502Z,8.47
2019-05-06T23:10:59.943Z,8.10
2019-05-06T23:16:02.393Z,7.92
2019-05-06T23:21:04.841Z,7.69
2019-05-06T23:26:16.396Z,7.56
2019-05-06T23:31:18.854Z,7.53
2019-05-06T23:36:22.910Z,7.51
2019-05-06T23:42:01.255Z,7.32
2019-05-06T23:47:42.224Z,7.01
2019-05-06T23:53:22.949Z,6.92
2019-05-06T23:58:23.201Z,6.87
